Terminal Aerodrome Forecast
Issued by NWS

Home | Current Version | Previous Version | Text Only | Print | Product List | Glossary On
Versions: 1 2 3 4 5 6 7 8 9 10 11 12 13 14 15
000
FTUS44 KBMX 210520
TAFTOI
TAF
KTOI 210520Z 2106/2206 00000KT P6SM BKN250
      TEMPO 2109/2112 OVC025
     FM211200 00000KT P6SM OVC100
     FM211600 VRB04KT P6SM BKN050=

USA.gov is the U.S. government's official web portal to all federal, state and local government web resources and services.